createdAt,value
2018-09-05T00:00:02.202Z,21.17
2018-09-05T00:02:30.417Z,21.17
2018-09-05T00:04:58.641Z,21.06
2018-09-05T00:07:26.858Z,20.99
2018-09-05T00:09:55.079Z,21.08
2018-09-05T00:12:23.341Z,21.09
2018-09-05T00:14:51.845Z,21.14
2018-09-05T00:17:20.122Z,21.15
2018-09-05T00:19:48.347Z,21.17
2018-09-05T00:22:16.566Z,21.10
2018-09-05T00:24:44.811Z,21.12
2018-09-05T00:27:14.145Z,21.12
2018-09-05T00:29:42.516Z,21.04
2018-09-05T00:32:10.747Z,21.01
2018-09-05T00:34:38.985Z,20.89
2018-09-05T00:37:07.294Z,20.87
2018-09-05T00:39:35.560Z,20.87
2018-09-05T00:42:03.782Z,20.89
2018-09-05T00:44:32.023Z,20.87
2018-09-05T00:47:00.254Z,20.68
2018-09-05T00:49:28.516Z,20.79
2018-09-05T00:51:56.738Z,20.78
2018-09-05T00:54:24.974Z,20.76
2018-09-05T00:56:53.261Z,20.72
2018-09-05T00:59:21.503Z,20.75
2018-09-05T01:01:49.721Z,20.79
2018-09-05T01:04:17.983Z,20.80
2018-09-05T01:06:46.198Z,20.80
2018-09-05T01:09:14.491Z,20.86
2018-09-05T01:11:42.725Z,20.76
2018-09-05T01:14:10.945Z,20.80
2018-09-05T01:16:39.294Z,20.78
2018-09-05T01:19:08.573Z,20.55
2018-09-05T01:21:37.902Z,20.45
2018-09-05T01:24:06.838Z,20.42
2018-09-05T01:26:35.075Z,20.59
2018-09-05T01:29:03.389Z,20.56
2018-09-05T01:31:31.651Z,20.62
2018-09-05T01:33:59.871Z,20.69
2018-09-05T01:36:28.207Z,20.64
2018-09-05T01:38:56.434Z,20.59
2018-09-05T01:41:24.722Z,20.53
2018-09-05T01:43:52.955Z,20.29
2018-09-05T01:46:21.210Z,20.29
2018-09-05T01:48:49.443Z,20.32
2018-09-05T01:51:17.665Z,20.50
2018-09-05T01:53:45.903Z,20.43
2018-09-05T01:56:14.209Z,20.35
2018-09-05T01:58:42.497Z,20.29
2018-09-05T02:01:10.719Z,20.42
2018-09-05T02:03:38.941Z,20.39
2018-09-05T02:06:07.299Z,20.14
2018-09-05T02:08:35.556Z,20.35
2018-09-05T02:11:03.747Z,20.23
2018-09-05T02:13:31.961Z,20.22
2018-09-05T02:16:00.188Z,20.09
2018-09-05T02:18:28.423Z,20.12
2018-09-05T02:20:56.622Z,20.18
2018-09-05T02:23:24.882Z,20.10
2018-09-05T02:25:53.094Z,19.91
2018-09-05T02:28:21.319Z,19.94
2018-09-05T02:30:49.562Z,20.00
2018-09-05T02:33:17.794Z,20.09
2018-09-05T02:35:46.005Z,19.93
2018-09-05T02:38:14.227Z,20.06
2018-09-05T02:40:42.466Z,19.90
2018-09-05T02:43:10.698Z,19.95
2018-09-05T02:45:38.925Z,20.01
2018-09-05T02:48:07.143Z,20.01
2018-09-05T02:50:35.362Z,19.77
2018-09-05T02:53:03.591Z,19.83
2018-09-05T02:55:37.036Z,19.90
2018-09-05T02:58:05.360Z,19.98
2018-09-05T03:00:33.595Z,19.81
2018-09-05T03:03:01.819Z,19.84
2018-09-05T03:05:30.048Z,19.95
2018-09-05T03:07:58.327Z,20.02
2018-09-05T03:10:26.563Z,19.75
2018-09-05T03:12:54.835Z,19.91
2018-09-05T03:15:23.042Z,19.88
2018-09-05T03:17:51.270Z,19.93
2018-09-05T03:20:19.510Z,19.91
2018-09-05T03:22:47.994Z,19.93
2018-09-05T03:25:16.213Z,19.81
2018-09-05T03:27:44.439Z,19.80
2018-09-05T03:30:12.770Z,19.77
2018-09-05T03:32:41.077Z,19.77
2018-09-05T03:35:09.222Z,19.77
2018-09-05T03:37:37.471Z,19.76
2018-09-05T03:40:06.039Z,19.64
2018-09-05T03:42:34.414Z,19.66
2018-09-05T03:45:02.650Z,19.60
2018-09-05T03:47:30.887Z,19.73
2018-09-05T03:49:59.103Z,19.60
2018-09-05T03:52:27.333Z,19.65
2018-09-05T03:54:55.560Z,19.67
2018-09-05T03:57:23.766Z,19.65
2018-09-05T03:59:52.001Z,19.59
2018-09-05T04:02:20.226Z,19.54
2018-09-05T04:04:48.446Z,19.45
2018-09-05T04:07:16.658Z,19.45
2018-09-05T04:09:44.930Z,19.40
2018-09-05T04:12:13.225Z,19.48
2018-09-05T04:14:41.397Z,19.53
2018-09-05T04:17:09.634Z,19.54
2018-09-05T04:19:37.883Z,19.48
2018-09-05T04:22:06.143Z,19.17
2018-09-05T04:24:34.310Z,19.28
2018-09-05T04:27:02.525Z,19.40
2018-09-05T04:29:30.847Z,19.39
2018-09-05T04:31:58.993Z,19.27
2018-09-05T04:34:27.222Z,19.27
2018-09-05T04:36:55.437Z,19.29
2018-09-05T04:39:23.650Z,19.33
2018-09-05T04:41:51.907Z,19.05
2018-09-05T04:44:20.122Z,19.11
2018-09-05T04:46:48.350Z,19.16
2018-09-05T04:49:16.586Z,19.07
2018-09-05T04:51:44.811Z,19.13
2018-09-05T04:54:13.025Z,19.18
2018-09-05T04:56:41.263Z,19.14
2018-09-05T04:59:10.485Z,19.23
2018-09-05T05:01:38.698Z,19.04
2018-09-05T05:04:06.948Z,18.86
2018-09-05T05:06:35.187Z,18.83
2018-09-05T05:09:03.599Z,18.90
2018-09-05T05:11:31.826Z,18.81
2018-09-05T05:14:00.051Z,18.92
2018-09-05T05:16:28.262Z,18.99
2018-09-05T05:18:56.492Z,18.97
2018-09-05T05:21:24.709Z,19.00
2018-09-05T05:23:52.940Z,18.85
2018-09-05T05:26:21.146Z,19.09
2018-09-05T05:28:49.407Z,19.05
2018-09-05T05:31:17.613Z,19.03
2018-09-05T05:33:45.836Z,18.94
2018-09-05T05:36:14.571Z,19.01
2018-09-05T05:38:42.802Z,19.06
2018-09-05T05:41:11.005Z,19.20
2018-09-05T05:43:39.302Z,19.09
2018-09-05T05:46:07.930Z,18.97
2018-09-05T05:48:36.241Z,19.06
2018-09-05T05:51:04.538Z,19.13
2018-09-05T05:53:32.766Z,19.32
2018-09-05T05:56:01.067Z,19.18
2018-09-05T05:58:29.357Z,19.37
2018-09-05T06:00:57.693Z,19.31
2018-09-05T06:03:25.903Z,19.39
2018-09-05T06:05:54.194Z,19.39
2018-09-05T06:08:22.442Z,19.43
2018-09-05T06:10:50.682Z,19.52
2018-09-05T06:13:18.897Z,19.62
2018-09-05T06:15:47.119Z,19.51
2018-09-05T06:18:15.330Z,19.59
2018-09-05T06:20:43.786Z,19.56
2018-09-05T06:23:11.993Z,19.74
2018-09-05T06:25:40.235Z,19.80
2018-09-05T06:28:08.446Z,19.96
2018-09-05T06:30:36.890Z,20.06
2018-09-05T06:33:05.014Z,19.86
2018-09-05T06:35:33.302Z,20.04
2018-09-05T06:38:01.450Z,20.03
2018-09-05T06:40:29.687Z,20.25
2018-09-05T06:42:57.902Z,20.36
2018-09-05T06:45:26.195Z,20.59
2018-09-05T06:47:54.354Z,20.63
2018-09-05T06:50:22.595Z,20.72
2018-09-05T06:52:50.811Z,20.89
2018-09-05T06:55:19.056Z,21.22
2018-09-05T06:57:47.310Z,21.47
2018-09-05T07:00:17.655Z,21.41
2018-09-05T07:02:45.887Z,21.37
2018-09-05T07:05:14.155Z,21.17
2018-09-05T07:07:42.405Z,21.79
2018-09-05T07:10:10.692Z,21.82
2018-09-05T07:12:40.050Z,21.79
2018-09-05T07:15:08.278Z,22.56
2018-09-05T07:17:36.559Z,21.87
2018-09-05T07:20:04.763Z,22.33
2018-09-05T07:22:32.978Z,22.34
2018-09-05T07:25:01.267Z,22.92
2018-09-05T07:27:29.483Z,22.37
2018-09-05T07:29:57.667Z,22.96
2018-09-05T07:32:25.879Z,23.25
2018-09-05T07:34:54.102Z,23.57
2018-09-05T07:37:22.326Z,23.52
2018-09-05T07:39:50.645Z,23.82
2018-09-05T07:42:18.871Z,25.10
2018-09-05T07:44:47.109Z,24.70
2018-09-05T07:47:15.342Z,24.80
2018-09-05T07:49:43.548Z,24.45
2018-09-05T07:52:11.858Z,24.85
2018-09-05T07:54:40.087Z,25.19
2018-09-05T07:57:08.371Z,25.17
2018-09-05T07:59:36.559Z,24.89
2018-09-05T08:02:04.813Z,25.16
2018-09-05T08:04:33.059Z,26.52
2018-09-05T08:07:01.330Z,26.59
2018-09-05T08:09:29.557Z,25.59
2018-09-05T08:11:57.795Z,25.50
2018-09-05T08:14:26.017Z,25.62
2018-09-05T08:16:54.234Z,25.56
2018-09-05T08:19:22.482Z,26.76
2018-09-05T08:21:50.727Z,26.67
2018-09-05T08:24:19.252Z,25.92
2018-09-05T08:26:47.456Z,27.01
2018-09-05T08:29:15.704Z,26.66
2018-09-05T08:31:43.963Z,26.87
2018-09-05T08:34:12.206Z,25.80
2018-09-05T08:36:40.631Z,26.90
2018-09-05T08:39:10.746Z,26.27
2018-09-05T08:41:38.997Z,26.02
2018-09-05T08:44:07.386Z,26.73
2018-09-05T08:46:35.443Z,27.27
2018-09-05T08:49:03.763Z,26.80
2018-09-05T08:51:32.015Z,26.82
2018-09-05T08:54:00.513Z,27.12
2018-09-05T08:56:28.881Z,27.73
2018-09-05T08:58:57.216Z,27.99
2018-09-05T09:01:25.426Z,27.68
2018-09-05T09:03:53.656Z,26.91
2018-09-05T09:06:21.868Z,26.29
2018-09-05T09:08:50.114Z,26.69
2018-09-05T09:11:18.369Z,26.68
2018-09-05T09:13:46.602Z,25.89
2018-09-05T09:16:14.829Z,26.41
2018-09-05T09:18:43.082Z,26.23
2018-09-05T09:21:11.351Z,26.41
2018-09-05T09:23:39.622Z,26.53
2018-09-05T09:26:08.572Z,26.44
2018-09-05T09:28:36.774Z,26.45
2018-09-05T09:31:05.058Z,26.26
2018-09-05T09:33:33.326Z,26.25
2018-09-05T09:36:01.577Z,26.38
2018-09-05T09:38:29.841Z,26.26
2018-09-05T09:40:58.058Z,26.35
2018-09-05T09:43:26.337Z,26.51
2018-09-05T09:45:54.570Z,26.48
2018-09-05T09:48:22.794Z,25.99
2018-09-05T09:50:51.067Z,25.98
2018-09-05T09:53:19.306Z,25.69
2018-09-05T09:55:47.518Z,25.78
2018-09-05T09:58:15.801Z,25.91
2018-09-05T10:00:49.262Z,26.22
2018-09-05T10:03:22.946Z,26.30
2018-09-05T10:05:56.447Z,26.08
2018-09-05T10:08:29.970Z,25.93
2018-09-05T10:11:01.519Z,26.28
2018-09-05T10:13:34.905Z,26.37
2018-09-05T10:16:08.359Z,26.41
2018-09-05T10:18:39.690Z,25.95
2018-09-05T10:21:07.992Z,26.00
2018-09-05T10:23:36.174Z,26.40
2018-09-05T10:26:04.427Z,26.55
2018-09-05T10:28:32.775Z,26.60
2018-09-05T10:31:01.030Z,26.63
2018-09-05T10:33:29.258Z,26.58
2018-09-05T10:35:57.510Z,26.52
2018-09-05T10:38:25.746Z,26.45
2018-09-05T10:40:54.074Z,26.76
2018-09-05T10:43:22.310Z,26.81
2018-09-05T10:45:50.558Z,26.92
2018-09-05T10:48:18.819Z,27.03
2018-09-05T10:50:47.034Z,27.23
2018-09-05T10:53:15.262Z,26.98
2018-09-05T10:55:43.485Z,27.15
2018-09-05T10:58:11.787Z,27.41
2018-09-05T11:00:39.971Z,27.11
2018-09-05T11:03:08.562Z,27.31
2018-09-05T11:05:36.786Z,27.45
2018-09-05T11:08:05.187Z,27.59
2018-09-05T11:10:33.632Z,27.72
2018-09-05T11:13:01.766Z,27.36
2018-09-05T11:15:29.994Z,27.69
2018-09-05T11:17:58.258Z,27.79
2018-09-05T11:20:26.518Z,27.63
2018-09-05T11:22:54.756Z,27.53
2018-09-05T11:25:23.023Z,27.62
2018-09-05T11:27:51.233Z,27.70
2018-09-05T11:30:19.531Z,27.32
2018-09-05T11:32:47.787Z,27.39
2018-09-05T11:35:16.028Z,27.39
2018-09-05T11:37:44.375Z,27.48
2018-09-05T11:40:12.660Z,27.28
2018-09-05T11:42:40.946Z,27.26
2018-09-05T11:45:09.299Z,27.39
2018-09-05T11:47:37.579Z,27.40
2018-09-05T11:50:06.362Z,27.68
2018-09-05T11:52:34.577Z,27.67
2018-09-05T11:55:02.830Z,27.60
2018-09-05T11:57:31.121Z,27.22
2018-09-05T11:59:59.431Z,27.19
2018-09-05T12:02:27.683Z,27.47
2018-09-05T12:04:56.005Z,27.53
2018-09-05T12:07:24.156Z,27.60
2018-09-05T12:09:52.419Z,27.58
2018-09-05T12:12:20.713Z,27.84
2018-09-05T12:14:48.953Z,27.85
2018-09-05T12:17:17.199Z,27.95
2018-09-05T12:19:45.447Z,27.98
2018-09-05T12:22:13.835Z,28.03
2018-09-05T12:24:42.071Z,27.98
2018-09-05T12:27:10.286Z,27.95
2018-09-05T12:29:38.510Z,28.02
2018-09-05T12:32:06.742Z,27.75
2018-09-05T12:34:34.949Z,27.60
2018-09-05T12:37:03.190Z,27.73
2018-09-05T12:39:31.435Z,27.90
2018-09-05T12:41:59.660Z,28.02
2018-09-05T12:44:27.877Z,28.12
2018-09-05T12:46:56.338Z,28.01
2018-09-05T12:49:24.583Z,27.84
2018-09-05T12:51:52.791Z,28.07
2018-09-05T12:54:21.050Z,27.98
2018-09-05T12:56:49.262Z,27.86
2018-09-05T12:59:17.553Z,27.96
2018-09-05T13:01:45.762Z,27.93
2018-09-05T13:04:14.023Z,28.14
2018-09-05T13:06:42.306Z,28.14
2018-09-05T13:09:12.354Z,28.16
2018-09-05T13:11:40.629Z,28.18
2018-09-05T13:14:08.873Z,28.27
2018-09-05T13:16:37.394Z,28.23
2018-09-05T13:19:05.709Z,28.02
2018-09-05T13:21:33.963Z,28.12
2018-09-05T13:24:02.238Z,28.33
2018-09-05T13:26:30.532Z,28.56
2018-09-05T13:28:58.811Z,28.88
2018-09-05T13:31:27.055Z,28.86
2018-09-05T13:33:55.331Z,28.94
2018-09-05T13:36:24.643Z,28.89
2018-09-05T13:38:52.876Z,29.18
2018-09-05T13:41:21.184Z,29.28
2018-09-05T13:43:49.480Z,28.96
2018-09-05T13:46:17.750Z,29.34
2018-09-05T13:48:46.059Z,29.55
2018-09-05T13:51:14.294Z,29.29
2018-09-05T13:53:42.529Z,29.18
2018-09-05T13:56:10.761Z,29.32
2018-09-05T13:58:39.074Z,29.30
2018-09-05T14:01:07.608Z,29.43
2018-09-05T14:03:35.885Z,29.58
2018-09-05T14:06:05.208Z,30.07
2018-09-05T14:08:33.422Z,30.07
2018-09-05T14:11:01.629Z,30.05
2018-09-05T14:13:29.888Z,29.86
2018-09-05T14:15:58.135Z,29.74
2018-09-05T14:18:26.418Z,30.11
2018-09-05T14:20:54.691Z,30.36
2018-09-05T14:23:22.914Z,30.21
2018-09-05T14:25:51.162Z,29.81
2018-09-05T14:28:19.385Z,30.05
2018-09-05T14:30:47.617Z,29.93
2018-09-05T14:33:15.919Z,29.78
2018-09-05T14:35:44.163Z,29.34
2018-09-05T14:38:12.458Z,28.90
2018-09-05T14:40:40.693Z,28.96
2018-09-05T14:43:08.987Z,29.43
2018-09-05T14:45:37.220Z,29.30
2018-09-05T14:48:05.479Z,29.54
2018-09-05T14:50:33.679Z,29.71
2018-09-05T14:53:01.906Z,29.73
2018-09-05T14:55:30.123Z,29.59
2018-09-05T14:57:58.422Z,29.43
2018-09-05T15:00:26.671Z,29.37
2018-09-05T15:02:54.905Z,29.24
2018-09-05T15:05:23.152Z,29.31
2018-09-05T15:07:51.856Z,29.15
2018-09-05T15:10:20.087Z,28.82
2018-09-05T15:12:48.314Z,28.94
2018-09-05T15:15:17.046Z,28.92
2018-09-05T15:17:47.395Z,28.81
2018-09-05T15:20:15.695Z,28.84
2018-09-05T15:22:43.945Z,28.81
2018-09-05T15:25:12.174Z,28.86
2018-09-05T15:27:40.474Z,28.84
2018-09-05T15:30:09.396Z,28.82
2018-09-05T15:32:37.639Z,28.81
2018-09-05T15:35:06.090Z,28.80
2018-09-05T15:37:34.344Z,28.97
2018-09-05T15:40:02.632Z,28.96
2018-09-05T15:42:30.864Z,29.08
2018-09-05T15:44:59.089Z,29.24
2018-09-05T15:47:27.330Z,29.23
2018-09-05T15:49:55.550Z,29.12
2018-09-05T15:52:23.791Z,28.89
2018-09-05T15:54:52.410Z,29.06
2018-09-05T15:57:20.721Z,29.03
2018-09-05T15:59:48.899Z,28.88
2018-09-05T16:02:18.259Z,28.92
2018-09-05T16:04:46.466Z,28.75
2018-09-05T16:07:14.698Z,28.65
2018-09-05T16:09:43.115Z,28.61
2018-09-05T16:12:11.450Z,28.50
2018-09-05T16:14:39.744Z,28.43
2018-09-05T16:17:08.001Z,28.41
2018-09-05T16:19:36.309Z,28.39
2018-09-05T16:22:04.662Z,28.41
2018-09-05T16:24:32.922Z,28.34
2018-09-05T16:27:01.154Z,28.32
2018-09-05T16:29:29.381Z,28.30
2018-09-05T16:31:57.622Z,28.27
2018-09-05T16:34:25.927Z,28.28
2018-09-05T16:36:54.161Z,28.23
2018-09-05T16:39:22.490Z,28.22
2018-09-05T16:41:50.738Z,28.20
2018-09-05T16:44:18.971Z,28.18
2018-09-05T16:46:47.196Z,28.14
2018-09-05T16:49:15.422Z,28.01
2018-09-05T16:51:43.646Z,27.87
2018-09-05T16:54:11.896Z,27.86
2018-09-05T16:56:40.147Z,27.83
2018-09-05T16:59:08.366Z,27.70
2018-09-05T17:01:36.607Z,27.64
2018-09-05T17:04:04.865Z,27.62
2018-09-05T17:06:33.099Z,27.53
2018-09-05T17:09:01.315Z,27.52
2018-09-05T17:11:29.557Z,27.42
2018-09-05T17:13:57.773Z,27.31
2018-09-05T17:16:26.122Z,27.01
2018-09-05T17:18:54.380Z,26.97
2018-09-05T17:21:22.638Z,26.73
2018-09-05T17:23:50.895Z,26.75
2018-09-05T17:26:19.156Z,26.51
2018-09-05T17:28:47.382Z,26.40
2018-09-05T17:31:15.679Z,26.42
2018-09-05T17:33:43.918Z,26.51
2018-09-05T17:36:12.204Z,26.41
2018-09-05T17:38:40.451Z,26.22
2018-09-05T17:41:08.733Z,26.19
2018-09-05T17:43:36.985Z,26.14
2018-09-05T17:46:05.489Z,26.06
2018-09-05T17:48:33.785Z,26.03
2018-09-05T17:51:02.032Z,25.86
2018-09-05T17:53:30.320Z,25.85
2018-09-05T17:55:58.671Z,25.88
2018-09-05T17:58:29.285Z,25.87
2018-09-05T18:00:58.403Z,25.74
2018-09-05T18:03:26.683Z,25.68
2018-09-05T18:05:55.006Z,25.76
2018-09-05T18:08:24.762Z,25.63
2018-09-05T18:10:53.092Z,25.35
2018-09-05T18:13:21.354Z,25.27
2018-09-05T18:15:49.730Z,25.17
2018-09-05T18:18:17.991Z,25.05
2018-09-05T18:20:46.410Z,24.90
2018-09-05T18:23:14.730Z,24.60
2018-09-05T18:25:43.151Z,24.52
2018-09-05T18:28:11.534Z,24.49
2018-09-05T18:30:40.037Z,24.46
2018-09-05T18:33:08.411Z,24.39
2018-09-05T18:35:36.851Z,24.31
2018-09-05T18:38:05.470Z,24.12
2018-09-05T18:40:34.714Z,24.00
2018-09-05T18:43:02.946Z,24.23
2018-09-05T18:45:31.186Z,24.23
2018-09-05T18:47:59.791Z,24.36
2018-09-05T18:50:28.067Z,24.14
2018-09-05T18:53:01.629Z,24.07
2018-09-05T18:55:29.837Z,23.93
2018-09-05T18:57:58.153Z,23.66
2018-09-05T19:00:26.580Z,23.80
2018-09-05T19:02:54.874Z,24.03
2018-09-05T19:05:23.105Z,23.92
2018-09-05T19:07:51.313Z,24.06
2018-09-05T19:10:19.586Z,24.01
2018-09-05T19:12:48.070Z,23.78
2018-09-05T19:15:16.330Z,23.70
2018-09-05T19:17:44.579Z,23.79
2018-09-05T19:20:14.014Z,23.62
2018-09-05T19:22:42.302Z,23.58
2018-09-05T19:25:10.536Z,23.52
2018-09-05T19:27:38.880Z,23.62
2018-09-05T19:30:07.170Z,23.67
2018-09-05T19:32:35.415Z,23.41
2018-09-05T19:35:05.058Z,23.78
2018-09-05T19:37:33.310Z,23.71
2018-09-05T19:40:01.514Z,23.65
2018-09-05T19:42:29.903Z,23.47
2018-09-05T19:44:58.026Z,23.71
2018-09-05T19:47:26.282Z,23.47
2018-09-05T19:49:54.629Z,23.39
2018-09-05T19:52:22.961Z,23.51
2018-09-05T19:54:51.179Z,23.46
2018-09-05T19:57:19.417Z,23.41
2018-09-05T19:59:47.698Z,23.43
2018-09-05T20:02:15.959Z,23.37
2018-09-05T20:04:45.043Z,23.35
2018-09-05T20:07:13.557Z,23.27
2018-09-05T20:09:41.778Z,23.39
2018-09-05T20:12:10.033Z,23.18
2018-09-05T20:14:38.285Z,23.07
2018-09-05T20:17:06.611Z,22.99
2018-09-05T20:19:34.983Z,23.09
2018-09-05T20:22:03.219Z,22.91
2018-09-05T20:24:31.603Z,22.97
2018-09-05T20:26:59.867Z,23.03
2018-09-05T20:29:28.075Z,23.05
2018-09-05T20:31:56.310Z,23.05
2018-09-05T20:34:24.597Z,22.75
2018-09-05T20:36:52.850Z,22.60
2018-09-05T20:39:21.075Z,22.53
2018-09-05T20:41:49.338Z,22.65
2018-09-05T20:44:18.720Z,22.76
2018-09-05T20:46:46.974Z,22.83
2018-09-05T20:49:15.219Z,22.61
2018-09-05T20:51:44.558Z,22.71
2018-09-05T20:54:12.835Z,22.62
2018-09-05T20:56:41.141Z,22.53
2018-09-05T20:59:10.437Z,22.43
2018-09-05T21:01:38.710Z,22.20
2018-09-05T21:04:06.966Z,22.50
2018-09-05T21:06:35.198Z,22.16
2018-09-05T21:09:03.677Z,22.07
2018-09-05T21:11:31.991Z,22.40
2018-09-05T21:14:00.223Z,22.27
2018-09-05T21:16:28.483Z,22.09
2018-09-05T21:18:56.711Z,22.21
2018-09-05T21:21:24.938Z,22.22
2018-09-05T21:23:53.176Z,22.13
2018-09-05T21:26:21.439Z,21.91
2018-09-05T21:28:49.658Z,22.13
2018-09-05T21:31:17.877Z,22.28
2018-09-05T21:33:46.094Z,22.01
2018-09-05T21:36:14.345Z,22.26
2018-09-05T21:38:42.558Z,22.10
2018-09-05T21:41:11.215Z,21.93
2018-09-05T21:43:39.490Z,21.79
2018-09-05T21:46:07.755Z,21.69
2018-09-05T21:48:35.987Z,21.95
2018-09-05T21:51:04.558Z,21.95
2018-09-05T21:53:32.800Z,21.93
2018-09-05T21:56:01.058Z,21.86
2018-09-05T21:58:29.278Z,21.65
2018-09-05T22:00:57.514Z,21.76
2018-09-05T22:03:26.301Z,21.71
2018-09-05T22:05:54.645Z,21.77
2018-09-05T22:08:22.870Z,21.85
2018-09-05T22:10:51.097Z,21.80
2018-09-05T22:13:19.374Z,21.72
2018-09-05T22:15:48.382Z,21.72
2018-09-05T22:18:17.630Z,21.72
2018-09-05T22:20:45.898Z,21.68
2018-09-05T22:23:14.113Z,21.63
2018-09-05T22:25:42.326Z,21.65
2018-09-05T22:28:10.562Z,21.54
2018-09-05T22:30:38.783Z,21.54
2018-09-05T22:33:07.310Z,21.67
2018-09-05T22:35:35.536Z,21.56
2018-09-05T22:38:03.764Z,21.67
2018-09-05T22:40:36.131Z,21.48
2018-09-05T22:44:13.247Z,21.57
2018-09-05T22:46:52.702Z,21.42
2018-09-05T22:49:39.595Z,21.35
2018-09-05T22:54:30.678Z,21.47
2018-09-05T22:57:46.812Z,21.15
2018-09-05T23:01:27.842Z,21.23
2018-09-05T23:06:07.039Z,21.22
2018-09-05T23:08:36.625Z,21.36
2018-09-05T23:11:17.221Z,21.22
2018-09-05T23:13:55.650Z,21.15
2018-09-05T23:17:35.387Z,21.19
2018-09-05T23:22:13.847Z,21.10
2018-09-05T23:24:42.086Z,20.99
2018-09-05T23:27:10.334Z,21.04
2018-09-05T23:29:38.574Z,21.25
2018-09-05T23:32:06.826Z,21.22
2018-09-05T23:34:35.060Z,21.30
2018-09-05T23:37:03.344Z,21.16
2018-09-05T23:39:31.626Z,21.16
2018-09-05T23:41:59.847Z,21.11
2018-09-05T23:44:28.071Z,21.23
2018-09-05T23:46:56.691Z,21.25
2018-09-05T23:49:24.912Z,20.94
2018-09-05T23:51:53.160Z,21.11
2018-09-05T23:54:21.381Z,21.10
2018-09-05T23:56:49.831Z,20.83
2018-09-05T23:59:18.051Z,20.90
